sensor_id;sensor_type;location;lat;lon;timestamp;pressure;altitude;pressure_sealevel;temperature;humidity
56270;BME280;42176;43.240;27.880;2023-08-07T00:01:20;99131.03;;;22.71;100.00
56270;BME280;42176;43.240;27.880;2023-08-07T00:03:21;99123.31;;;22.66;100.00
56270;BME280;42176;43.240;27.880;2023-08-07T00:05:22;99122.19;;;22.69;100.00
56270;BME280;42176;43.240;27.880;2023-08-07T00:07:22;99127.59;;;22.69;100.00
56270;BME280;42176;43.240;27.880;2023-08-07T00:09:24;99118.94;;;22.44;100.00
56270;BME280;42176;43.240;27.880;2023-08-07T00:11:25;99129.13;;;22.40;100.00
56270;BME280;42176;43.240;27.880;2023-08-07T00:13:27;99126.94;;;22.45;100.00
56270;BME280;42176;43.240;27.880;2023-08-07T00:15:28;99118.34;;;22.40;100.00
56270;BME280;42176;43.240;27.880;2023-08-07T00:17:28;99120.81;;;22.22;100.00
56270;BME280;42176;43.240;27.880;2023-08-07T00:19:29;99123.50;;;22.22;100.00
56270;BME280;42176;43.240;27.880;2023-08-07T00:21:29;99124.25;;;22.24;100.00
56270;BME280;42176;43.240;27.880;2023-08-07T00:23:30;99122.78;;;22.20;100.00
56270;BME280;42176;43.240;27.880;2023-08-07T00:25:30;99129.00;;;22.11;100.00
56270;BME280;42176;43.240;27.880;2023-08-07T00:27:31;99126.56;;;22.08;100.00
56270;BME280;42176;43.240;27.880;2023-08-07T00:29:31;99120.19;;;22.09;100.00
56270;BME280;42176;43.240;27.880;2023-08-07T00:31:32;99120.59;;;22.14;100.00
56270;BME280;42176;43.240;27.880;2023-08-07T00:33:33;99116.75;;;22.07;100.00
56270;BME280;42176;43.240;27.880;2023-08-07T00:35:33;99110.16;;;21.99;100.00
56270;BME280;42176;43.240;27.880;2023-08-07T00:37:34;99115.03;;;22.05;100.00
56270;BME280;42176;43.240;27.880;2023-08-07T00:39:34;99113.31;;;22.04;100.00
56270;BME280;42176;43.240;27.880;2023-08-07T00:41:35;99115.22;;;21.93;100.00
56270;BME280;42176;43.240;27.880;2023-08-07T00:43:35;99125.34;;;22.00;100.00
56270;BME280;42176;43.240;27.880;2023-08-07T00:45:44;99129.91;;;22.00;100.00
56270;BME280;42176;43.240;27.880;2023-08-07T00:47:45;99128.31;;;21.97;100.00
56270;BME280;42176;43.240;27.880;2023-08-07T00:49:46;99121.50;;;21.93;100.00
56270;BME280;42176;43.240;27.880;2023-08-07T00:51:48;99129.44;;;21.95;100.00
56270;BME280;42176;43.240;27.880;2023-08-07T00:53:50;99130.31;;;21.95;100.00
56270;BME280;42176;43.240;27.880;2023-08-07T00:55:50;99143.91;;;21.94;100.00
56270;BME280;42176;43.240;27.880;2023-08-07T00:57:51;99133.53;;;21.89;100.00
56270;BME280;42176;43.240;27.880;2023-08-07T00:59:52;99137.69;;;21.93;100.00
56270;BME280;42176;43.240;27.880;2023-08-07T01:01:53;99125.94;;;21.83;100.00
56270;BME280;42176;43.240;27.880;2023-08-07T01:03:53;99140.41;;;21.82;100.00
56270;BME280;42176;43.240;27.880;2023-08-07T01:05:54;99142.78;;;21.75;100.00
56270;BME280;42176;43.240;27.880;2023-08-07T01:07:54;99132.63;;;21.67;100.00
56270;BME280;42176;43.240;27.880;2023-08-07T01:09:55;99136.66;;;21.73;100.00
56270;BME280;42176;43.240;27.880;2023-08-07T01:12:13;99141.72;;;21.66;100.00
56270;BME280;42176;43.240;27.880;2023-08-07T01:16:28;99153.88;;;21.60;100.00
56270;BME280;42176;43.240;27.880;2023-08-07T01:18:29;99154.38;;;21.54;100.00
56270;BME280;42176;43.240;27.880;2023-08-07T01:20:31;99146.41;;;21.53;100.00
56270;BME280;42176;43.240;27.880;2023-08-07T01:22:31;99158.16;;;21.52;100.00
56270;BME280;42176;43.240;27.880;2023-08-07T01:24:32;99165.53;;;21.50;100.00
56270;BME280;42176;43.240;27.880;2023-08-07T01:26:33;99168.50;;;21.47;100.00
56270;BME280;42176;43.240;27.880;2023-08-07T01:28:44;99169.00;;;21.40;100.00
56270;BME280;42176;43.240;27.880;2023-08-07T01:30:50;99173.00;;;21.46;100.00
56270;BME280;42176;43.240;27.880;2023-08-07T01:33:24;99167.22;;;21.51;100.00
56270;BME280;42176;43.240;27.880;2023-08-07T01:35:30;99174.81;;;21.57;100.00
56270;BME280;42176;43.240;27.880;2023-08-07T01:37:35;99178.50;;;21.56;100.00
56270;BME280;42176;43.240;27.880;2023-08-07T01:39:37;99190.16;;;21.56;100.00
56270;BME280;42176;43.240;27.880;2023-08-07T01:41:38;99188.00;;;21.39;100.00
56270;BME280;42176;43.240;27.880;2023-08-07T01:43:39;99193.75;;;21.45;100.00
56270;BME280;42176;43.240;27.880;2023-08-07T01:45:39;99200.59;;;21.38;100.00
56270;BME280;42176;43.240;27.880;2023-08-07T01:47:40;99207.31;;;21.44;100.00
56270;BME280;42176;43.240;27.880;2023-08-07T01:49:40;99218.97;;;21.44;100.00
56270;BME280;42176;43.240;27.880;2023-08-07T01:51:41;99205.50;;;21.44;100.00
56270;BME280;42176;43.240;27.880;2023-08-07T01:53:41;99215.81;;;21.39;100.00
56270;BME280;42176;43.240;27.880;2023-08-07T01:55:41;99214.09;;;21.38;100.00
56270;BME280;42176;43.240;27.880;2023-08-07T01:57:42;99222.69;;;21.32;100.00
56270;BME280;42176;43.240;27.880;2023-08-07T01:59:42;99219.38;;;21.40;100.00
56270;BME280;42176;43.240;27.880;2023-08-07T02:01:44;99225.50;;;21.30;100.00
56270;BME280;42176;43.240;27.880;2023-08-07T02:03:45;99231.50;;;21.23;100.00
56270;BME280;42176;43.240;27.880;2023-08-07T02:05:46;99217.06;;;21.24;100.00
56270;BME280;42176;43.240;27.880;2023-08-07T02:07:46;99229.56;;;21.13;100.00
56270;BME280;42176;43.240;27.880;2023-08-07T02:09:47;99232.25;;;21.13;100.00
56270;BME280;42176;43.240;27.880;2023-08-07T02:11:47;99231.75;;;21.08;100.00
56270;BME280;42176;43.240;27.880;2023-08-07T02:13:48;99244.03;;;21.12;100.00
56270;BME280;42176;43.240;27.880;2023-08-07T02:15:48;99256.75;;;21.10;100.00
56270;BME280;42176;43.240;27.880;2023-08-07T02:17:48;99246.59;;;21.03;100.00
56270;BME280;42176;43.240;27.880;2023-08-07T02:19:49;99259.09;;;21.04;100.00
56270;BME280;42176;43.240;27.880;2023-08-07T02:21:49;99250.63;;;20.97;100.00
56270;BME280;42176;43.240;27.880;2023-08-07T02:23:50;99255.53;;;20.92;100.00
56270;BME280;42176;43.240;27.880;2023-08-07T02:25:51;99254.78;;;20.90;100.00
56270;BME280;42176;43.240;27.880;2023-08-07T02:27:51;99260.91;;;20.92;100.00
56270;BME280;42176;43.240;27.880;2023-08-07T02:29:52;99253.81;;;20.91;100.00
56270;BME280;42176;43.240;27.880;2023-08-07T02:31:53;99261.16;;;20.89;100.00
56270;BME280;42176;43.240;27.880;2023-08-07T02:33:53;99258.59;;;20.87;100.00
56270;BME280;42176;43.240;27.880;2023-08-07T02:35:54;99256.25;;;20.82;100.00
56270;BME280;42176;43.240;27.880;2023-08-07T02:37:54;99262.31;;;20.73;100.00
56270;BME280;42176;43.240;27.880;2023-08-07T02:39:54;99266.00;;;20.72;100.00
56270;BME280;42176;43.240;27.880;2023-08-07T02:41:55;99265.38;;;20.68;100.00
56270;BME280;42176;43.240;27.880;2023-08-07T02:43:55;99278.75;;;20.70;100.00
56270;BME280;42176;43.240;27.880;2023-08-07T02:45:56;99269.91;;;20.68;100.00
56270;BME280;42176;43.240;27.880;2023-08-07T02:47:57;99270.63;;;20.59;100.00
56270;BME280;42176;43.240;27.880;2023-08-07T02:49:57;99273.16;;;20.49;100.00
56270;BME280;42176;43.240;27.880;2023-08-07T02:51:58;99284.06;;;20.47;100.00
56270;BME280;42176;43.240;27.880;2023-08-07T02:53:58;99291.41;;;20.45;100.00
56270;BME280;42176;43.240;27.880;2023-08-07T02:55:59;99293.84;;;20.37;100.00
56270;BME280;42176;43.240;27.880;2023-08-07T02:57:59;99284.78;;;20.38;100.00
56270;BME280;42176;43.240;27.880;2023-08-07T03:00:00;99283.44;;;20.44;100.00
56270;BME280;42176;43.240;27.880;2023-08-07T03:02:00;99282.94;;;20.38;100.00
56270;BME280;42176;43.240;27.880;2023-08-07T03:04:01;99283.06;;;20.37;100.00
56270;BME280;42176;43.240;27.880;2023-08-07T03:06:01;99281.81;;;20.30;100.00
56270;BME280;42176;43.240;27.880;2023-08-07T03:08:01;99285.00;;;20.35;100.00
56270;BME280;42176;43.240;27.880;2023-08-07T03:10:02;99289.34;;;20.24;100.00
56270;BME280;42176;43.240;27.880;2023-08-07T03:12:04;99297.22;;;20.28;100.00
56270;BME280;42176;43.240;27.880;2023-08-07T03:14:05;99296.75;;;20.34;100.00
56270;BME280;42176;43.240;27.880;2023-08-07T03:16:06;99294.66;;;20.37;100.00
56270;BME280;42176;43.240;27.880;2023-08-07T03:18:07;99295.28;;;20.41;100.00
56270;BME280;42176;43.240;27.880;2023-08-07T03:20:08;99296.63;;;20.35;100.00
56270;BME280;42176;43.240;27.880;2023-08-07T03:22:09;99306.16;;;20.28;100.00
56270;BME280;42176;43.240;27.880;2023-08-07T03:24:10;99299.91;;;20.28;100.00
56270;BME280;42176;43.240;27.880;2023-08-07T03:26:11;99303.34;;;20.30;100.00
56270;BME280;42176;43.240;27.880;2023-08-07T03:28:12;99299.91;;;20.28;100.00
56270;BME280;42176;43.240;27.880;2023-08-07T03:30:13;99310.50;;;20.18;100.00
56270;BME280;42176;43.240;27.880;2023-08-07T03:32:13;99312.22;;;20.19;100.00
56270;BME280;42176;43.240;27.880;2023-08-07T03:34:13;99298.59;;;20.09;100.00
56270;BME280;42176;43.240;27.880;2023-08-07T03:36:14;99300.81;;;20.15;100.00
56270;BME280;42176;43.240;27.880;2023-08-07T03:38:14;99306.66;;;20.09;100.00
56270;BME280;42176;43.240;27.880;2023-08-07T03:40:15;99314.63;;;20.11;100.00
56270;BME280;42176;43.240;27.880;2023-08-07T03:42:15;99304.84;;;20.10;100.00
56270;BME280;42176;43.240;27.880;2023-08-07T03:44:16;99319.22;;;19.97;100.00
56270;BME280;42176;43.240;27.880;2023-08-07T03:46:16;99315.81;;;20.31;100.00
56270;BME280;42176;43.240;27.880;2023-08-07T03:48:17;99302.78;;;20.84;100.00
56270;BME280;42176;43.240;27.880;2023-08-07T03:50:17;99320.31;;;21.47;100.00
56270;BME280;42176;43.240;27.880;2023-08-07T03:52:18;99320.41;;;21.91;100.00
56270;BME280;42176;43.240;27.880;2023-08-07T03:54:18;99313.94;;;22.15;93.69
56270;BME280;42176;43.240;27.880;2023-08-07T03:56:19;99317.00;;;22.54;91.49
56270;BME280;42176;43.240;27.880;2023-08-07T03:58:19;99324.63;;;22.91;88.94
56270;BME280;42176;43.240;27.880;2023-08-07T04:00:19;99321.03;;;23.33;84.56
56270;BME280;42176;43.240;27.880;2023-08-07T04:02:21;99327.97;;;23.67;82.01
56270;BME280;42176;43.240;27.880;2023-08-07T04:04:21;99324.38;;;24.07;77.44
56270;BME280;42176;43.240;27.880;2023-08-07T04:06:21;99328.69;;;24.39;74.90
56270;BME280;42176;43.240;27.880;2023-08-07T04:08:22;99335.81;;;24.60;72.72
56270;BME280;42176;43.240;27.880;2023-08-07T04:10:23;99321.50;;;24.97;70.33
56270;BME280;42176;43.240;27.880;2023-08-07T04:12:23;99330.81;;;25.32;66.27
56270;BME280;42176;43.240;27.880;2023-08-07T04:14:23;99323.91;;;25.48;64.79
56270;BME280;42176;43.240;27.880;2023-08-07T04:16:24;99315.31;;;25.52;64.79
56270;BME280;42176;43.240;27.880;2023-08-07T04:18:24;99326.03;;;25.82;62.60
56270;BME280;42176;43.240;27.880;2023-08-07T04:20:25;99315.22;;;26.18;60.61
56270;BME280;42176;43.240;27.880;2023-08-07T04:22:25;99322.91;;;26.41;59.80
56270;BME280;42176;43.240;27.880;2023-08-07T04:24:26;99324.28;;;26.63;58.00
56270;BME280;42176;43.240;27.880;2023-08-07T04:26:26;99325.78;;;26.57;56.67
56270;BME280;42176;43.240;27.880;2023-08-07T04:28:30;99330.72;;;26.80;55.97
56270;BME280;42176;43.240;27.880;2023-08-07T04:30:30;99338.25;;;27.13;55.73
56270;BME280;42176;43.240;27.880;2023-08-07T04:32:31;99328.88;;;27.07;54.86
56270;BME280;42176;43.240;27.880;2023-08-07T04:34:31;99340.41;;;27.62;55.25
56270;BME280;42176;43.240;27.880;2023-08-07T04:36:31;99339.88;;;28.01;52.24
56270;BME280;42176;43.240;27.880;2023-08-07T04:38:33;99350.66;;;28.44;51.44
56270;BME280;42176;43.240;27.880;2023-08-07T04:40:33;99342.38;;;28.79;49.29
56270;BME280;42176;43.240;27.880;2023-08-07T04:42:34;99348.81;;;29.11;48.54
56270;BME280;42176;43.240;27.880;2023-08-07T04:44:34;99346.00;;;29.44;46.97
56270;BME280;42176;43.240;27.880;2023-08-07T04:46:35;99347.41;;;29.80;46.27
56270;BME280;42176;43.240;27.880;2023-08-07T04:48:36;99358.16;;;29.81;45.39
56270;BME280;42176;43.240;27.880;2023-08-07T04:50:36;99363.47;;;30.14;45.04
56270;BME280;42176;43.240;27.880;2023-08-07T04:52:37;99367.03;;;30.46;44.29
56270;BME280;42176;43.240;27.880;2023-08-07T04:54:37;99355.13;;;30.62;43.69
56270;BME280;42176;43.240;27.880;2023-08-07T04:56:38;99355.34;;;30.52;41.43
56270;BME280;42176;43.240;27.880;2023-08-07T04:58:38;99349.03;;;30.29;42.08
56270;BME280;42176;43.240;27.880;2023-08-07T05:00:38;99352.22;;;30.64;42.91
56270;BME280;42176;43.240;27.880;2023-08-07T05:02:39;99342.41;;;31.08;42.39
56270;BME280;42176;43.240;27.880;2023-08-07T05:04:39;99348.56;;;31.40;39.77
56270;BME280;42176;43.240;27.880;2023-08-07T05:06:40;99346.03;;;31.68;39.32
56270;BME280;42176;43.240;27.880;2023-08-07T05:08:40;99341.59;;;31.67;38.21
56270;BME280;42176;43.240;27.880;2023-08-07T05:10:41;99337.25;;;31.58;38.95
56270;BME280;42176;43.240;27.880;2023-08-07T05:12:41;99347.19;;;31.29;38.48
56270;BME280;42176;43.240;27.880;2023-08-07T05:14:41;99346.13;;;31.90;37.67
56270;BME280;42176;43.240;27.880;2023-08-07T05:16:42;99354.59;;;31.95;38.44
56270;BME280;42176;43.240;27.880;2023-08-07T05:18:42;99350.84;;;31.66;37.22
56270;BME280;42176;43.240;27.880;2023-08-07T05:20:43;99359.53;;;32.22;37.24
56270;BME280;42176;43.240;27.880;2023-08-07T05:22:44;99363.16;;;32.44;36.54
56270;BME280;42176;43.240;27.880;2023-08-07T05:24:44;99376.59;;;33.04;35.96
56270;BME280;42176;43.240;27.880;2023-08-07T05:26:45;99383.56;;;33.35;35.41
56270;BME280;42176;43.240;27.880;2023-08-07T05:28:46;99378.03;;;33.57;33.89
56270;BME280;42176;43.240;27.880;2023-08-07T05:30:46;99387.16;;;33.29;34.87
56270;BME280;42176;43.240;27.880;2023-08-07T05:32:47;99369.84;;;33.35;33.33
56270;BME280;42176;43.240;27.880;2023-08-07T05:34:47;99380.25;;;33.11;33.96
56270;BME280;42176;43.240;27.880;2023-08-07T05:36:48;99386.44;;;32.91;34.70
56270;BME280;42176;43.240;27.880;2023-08-07T05:38:49;99381.19;;;32.75;34.34
56270;BME280;42176;43.240;27.880;2023-08-07T05:40:49;99380.78;;;33.57;33.44
56270;BME280;42176;43.240;27.880;2023-08-07T05:42:50;99376.97;;;33.51;33.11
56270;BME280;42176;43.240;27.880;2023-08-07T05:44:51;99391.00;;;34.11;32.43
56270;BME280;42176;43.240;27.880;2023-08-07T05:46:51;99386.06;;;34.62;31.46
56270;BME280;42176;43.240;27.880;2023-08-07T05:48:51;99389.50;;;35.04;30.93
56270;BME280;42176;43.240;27.880;2023-08-07T05:50:52;99392.00;;;35.53;30.45
56270;BME280;42176;43.240;27.880;2023-08-07T05:52:53;99404.66;;;35.81;29.51
56270;BME280;42176;43.240;27.880;2023-08-07T05:54:53;99413.19;;;36.96;27.97
56270;BME280;42176;43.240;27.880;2023-08-07T05:56:54;99417.06;;;37.83;26.91
56270;BME280;42176;43.240;27.880;2023-08-07T05:58:54;99408.09;;;38.36;26.24
56270;BME280;42176;43.240;27.880;2023-08-07T06:00:54;99409.97;;;38.54;25.22
56270;BME280;42176;43.240;27.880;2023-08-07T06:02:55;99420.38;;;38.71;25.05
56270;BME280;42176;43.240;27.880;2023-08-07T06:04:55;99420.50;;;38.15;24.91
56270;BME280;42176;43.240;27.880;2023-08-07T06:06:56;99420.25;;;38.78;24.82
56270;BME280;42176;43.240;27.880;2023-08-07T06:08:56;99405.69;;;39.37;23.95
56270;BME280;42176;43.240;27.880;2023-08-07T06:10:57;99420.25;;;39.44;23.63
56270;BME280;42176;43.240;27.880;2023-08-07T06:12:57;99415.81;;;39.43;23.04
56270;BME280;42176;43.240;27.880;2023-08-07T06:14:57;99425.19;;;39.42;23.37
56270;BME280;42176;43.240;27.880;2023-08-07T06:16:58;99420.38;;;39.49;23.11
56270;BME280;42176;43.240;27.880;2023-08-07T06:19:00;99416.53;;;39.50;23.02
56270;BME280;42176;43.240;27.880;2023-08-07T06:21:01;99427.97;;;39.66;22.66
56270;BME280;42176;43.240;27.880;2023-08-07T06:23:01;99435.94;;;39.74;22.97
56270;BME280;42176;43.240;27.880;2023-08-07T06:25:02;99430.25;;;39.21;22.81
56270;BME280;42176;43.240;27.880;2023-08-07T06:27:02;99449.31;;;39.29;23.13
56270;BME280;42176;43.240;27.880;2023-08-07T06:29:03;99429.69;;;38.77;23.97
56270;BME280;42176;43.240;27.880;2023-08-07T06:31:06;99421.19;;;38.90;23.37
56270;BME280;42176;43.240;27.880;2023-08-07T06:33:06;99436.75;;;39.15;23.05
56270;BME280;42176;43.240;27.880;2023-08-07T06:35:07;99446.81;;;39.76;22.62
56270;BME280;42176;43.240;27.880;2023-08-07T06:37:07;99444.66;;;40.18;22.26
56270;BME280;42176;43.240;27.880;2023-08-07T06:39:08;99449.78;;;39.98;22.09
56270;BME280;42176;43.240;27.880;2023-08-07T06:41:08;99442.94;;;39.29;22.95
56270;BME280;42176;43.240;27.880;2023-08-07T06:43:09;99447.47;;;38.81;22.90
56270;BME280;42176;43.240;27.880;2023-08-07T06:45:09;99437.47;;;38.37;23.50
56270;BME280;42176;43.240;27.880;2023-08-07T06:47:10;99442.09;;;38.44;23.88
56270;BME280;42176;43.240;27.880;2023-08-07T06:49:10;99439.97;;;38.08;23.86
56270;BME280;42176;43.240;27.880;2023-08-07T06:51:12;99447.53;;;37.57;24.47
56270;BME280;42176;43.240;27.880;2023-08-07T06:53:13;99437.56;;;37.93;24.52
56270;BME280;42176;43.240;27.880;2023-08-07T06:55:13;99444.31;;;37.60;24.71
56270;BME280;42176;43.240;27.880;2023-08-07T06:57:14;99441.00;;;37.52;24.86
56270;BME280;42176;43.240;27.880;2023-08-07T06:59:14;99433.03;;;37.81;24.58
56270;BME280;42176;43.240;27.880;2023-08-07T07:01:15;99434.72;;;38.00;24.71
56270;BME280;42176;43.240;27.880;2023-08-07T07:03:15;99432.94;;;38.24;24.08
56270;BME280;42176;43.240;27.880;2023-08-07T07:05:15;99434.25;;;37.85;25.48
56270;BME280;42176;43.240;27.880;2023-08-07T07:07:16;99427.41;;;37.50;25.34
56270;BME280;42176;43.240;27.880;2023-08-07T07:09:17;99435.47;;;37.52;25.71
56270;BME280;42176;43.240;27.880;2023-08-07T07:11:17;99432.84;;;37.57;25.13
56270;BME280;42176;43.240;27.880;2023-08-07T07:13:17;99410.81;;;37.50;25.93
56270;BME280;42176;43.240;27.880;2023-08-07T07:15:18;99427.72;;;37.79;25.11
56270;BME280;42176;43.240;27.880;2023-08-07T07:17:18;99419.34;;;37.86;25.04
56270;BME280;42176;43.240;27.880;2023-08-07T07:19:19;99423.34;;;38.08;25.14
56270;BME280;42176;43.240;27.880;2023-08-07T07:21:19;99432.69;;;37.70;24.60
56270;BME280;42176;43.240;27.880;2023-08-07T07:23:20;99437.50;;;37.82;24.54
56270;BME280;42176;43.240;27.880;2023-08-07T07:25:21;99442.63;;;38.34;24.65
56270;BME280;42176;43.240;27.880;2023-08-07T07:27:21;99453.44;;;38.54;24.03
56270;BME280;42176;43.240;27.880;2023-08-07T07:29:22;99447.47;;;37.83;24.16
56270;BME280;42176;43.240;27.880;2023-08-07T07:31:22;99440.38;;;37.87;24.57
56270;BME280;42176;43.240;27.880;2023-08-07T07:33:23;99438.97;;;38.03;24.39
56270;BME280;42176;43.240;27.880;2023-08-07T07:35:23;99440.94;;;38.63;23.43
56270;BME280;42176;43.240;27.880;2023-08-07T07:37:24;99442.91;;;38.75;23.51
56270;BME280;42176;43.240;27.880;2023-08-07T07:39:25;99427.06;;;38.51;23.25
56270;BME280;42176;43.240;27.880;2023-08-07T07:41:25;99434.25;;;37.85;24.88
56270;BME280;42176;43.240;27.880;2023-08-07T07:43:25;99440.25;;;37.82;23.75
56270;BME280;42176;43.240;27.880;2023-08-07T07:45:26;99445.28;;;36.97;25.00
56270;BME280;42176;43.240;27.880;2023-08-07T07:47:26;99429.59;;;36.84;24.95
56270;BME280;42176;43.240;27.880;2023-08-07T07:49:27;99424.59;;;36.74;26.54
56270;BME280;42176;43.240;27.880;2023-08-07T07:51:27;99417.09;;;37.13;25.20
56270;BME280;42176;43.240;27.880;2023-08-07T07:53:29;99426.88;;;37.60;24.87
56270;BME280;42176;43.240;27.880;2023-08-07T07:55:30;99432.03;;;37.06;26.00
56270;BME280;42176;43.240;27.880;2023-08-07T07:57:31;99416.88;;;37.59;23.92
56270;BME280;42176;43.240;27.880;2023-08-07T07:59:31;99416.13;;;37.70;24.86
56270;BME280;42176;43.240;27.880;2023-08-07T08:01:32;99433.47;;;37.08;23.74
56270;BME280;42176;43.240;27.880;2023-08-07T08:03:33;99449.50;;;37.50;24.64
56270;BME280;42176;43.240;27.880;2023-08-07T08:05:33;99442.22;;;37.56;23.62
56270;BME280;42176;43.240;27.880;2023-08-07T08:07:34;99439.59;;;37.42;24.70
56270;BME280;42176;43.240;27.880;2023-08-07T08:09:35;99441.91;;;37.45;24.72
56270;BME280;42176;43.240;27.880;2023-08-07T08:11:35;99444.03;;;37.43;24.60
56270;BME280;42176;43.240;27.880;2023-08-07T08:13:36;99456.38;;;37.66;24.95
56270;BME280;42176;43.240;27.880;2023-08-07T08:15:39;99454.25;;;38.05;24.04
56270;BME280;42176;43.240;27.880;2023-08-07T08:17:42;99444.25;;;38.04;23.77
56270;BME280;42176;43.240;27.880;2023-08-07T08:19:43;99440.41;;;37.68;23.97
56270;BME280;42176;43.240;27.880;2023-08-07T08:21:43;99452.88;;;37.96;23.41
56270;BME280;42176;43.240;27.880;2023-08-07T08:23:44;99454.69;;;38.21;23.67
56270;BME280;42176;43.240;27.880;2023-08-07T08:25:44;99446.53;;;38.26;23.12
56270;BME280;42176;43.240;27.880;2023-08-07T08:27:45;99449.13;;;38.58;22.63
56270;BME280;42176;43.240;27.880;2023-08-07T08:29:46;99443.16;;;38.24;23.05
56270;BME280;42176;43.240;27.880;2023-08-07T08:31:46;99439.59;;;38.54;23.51
56270;BME280;42176;43.240;27.880;2023-08-07T08:33:46;99437.94;;;38.16;23.12
56270;BME280;42176;43.240;27.880;2023-08-07T08:35:47;99431.97;;;38.00;23.85
56270;BME280;42176;43.240;27.880;2023-08-07T08:37:47;99438.09;;;38.21;23.69
56270;BME280;42176;43.240;27.880;2023-08-07T08:39:48;99436.56;;;38.06;23.53
56270;BME280;42176;43.240;27.880;2023-08-07T08:41:49;99446.91;;;37.99;24.14
56270;BME280;42176;43.240;27.880;2023-08-07T08:43:51;99437.00;;;38.41;23.96
56270;BME280;42176;43.240;27.880;2023-08-07T08:45:56;99446.06;;;38.48;24.24
56270;BME280;42176;43.240;27.880;2023-08-07T08:48:01;99441.78;;;38.64;23.32
56270;BME280;42176;43.240;27.880;2023-08-07T08:50:07;99444.41;;;38.89;22.73
56270;BME280;42176;43.240;27.880;2023-08-07T08:52:08;99436.28;;;38.15;23.51
56270;BME280;42176;43.240;27.880;2023-08-07T08:54:09;99429.66;;;37.78;23.79
56270;BME280;42176;43.240;27.880;2023-08-07T08:56:11;99452.56;;;36.84;24.51
56270;BME280;42176;43.240;27.880;2023-08-07T08:58:13;99449.28;;;37.01;24.97
56270;BME280;42176;43.240;27.880;2023-08-07T09:00:15;99448.72;;;36.85;24.37
56270;BME280;42176;43.240;27.880;2023-08-07T09:02:20;99444.47;;;36.90;24.20
56270;BME280;42176;43.240;27.880;2023-08-07T09:04:21;99464.34;;;37.05;24.46
56270;BME280;42176;43.240;27.880;2023-08-07T09:06:22;99456.59;;;37.39;24.45
56270;BME280;42176;43.240;27.880;2023-08-07T09:08:24;99450.69;;;37.61;24.57
56270;BME280;42176;43.240;27.880;2023-08-07T09:10:27;99457.38;;;37.72;23.38
56270;BME280;42176;43.240;27.880;2023-08-07T09:12:29;99464.00;;;37.45;22.88
56270;BME280;42176;43.240;27.880;2023-08-07T09:14:33;99470.16;;;36.51;24.98
56270;BME280;42176;43.240;27.880;2023-08-07T09:16:37;99446.09;;;36.26;24.55
56270;BME280;42176;43.240;27.880;2023-08-07T09:18:38;99453.31;;;36.14;24.98
56270;BME280;42176;43.240;27.880;2023-08-07T09:20:39;99450.44;;;35.95;25.26
56270;BME280;42176;43.240;27.880;2023-08-07T09:22:41;99451.34;;;35.62;26.06
56270;BME280;42176;43.240;27.880;2023-08-07T09:24:42;99442.44;;;34.93;26.96
56270;BME280;42176;43.240;27.880;2023-08-07T09:26:42;99457.50;;;34.35;28.46
56270;BME280;42176;43.240;27.880;2023-08-07T09:28:44;99455.75;;;33.50;28.42
56270;BME280;42176;43.240;27.880;2023-08-07T09:30:44;99452.78;;;33.45;28.89
56270;BME280;42176;43.240;27.880;2023-08-07T09:32:47;99454.13;;;33.06;30.05
56270;BME280;42176;43.240;27.880;2023-08-07T09:34:48;99451.22;;;32.71;28.81
56270;BME280;42176;43.240;27.880;2023-08-07T09:36:49;99449.44;;;32.41;28.78
56270;BME280;42176;43.240;27.880;2023-08-07T09:38:50;99435.19;;;32.31;29.02
56270;BME280;42176;43.240;27.880;2023-08-07T09:40:50;99457.97;;;32.31;28.91
56270;BME280;42176;43.240;27.880;2023-08-07T09:42:52;99454.00;;;32.19;29.85
56270;BME280;42176;43.240;27.880;2023-08-07T09:44:53;99466.69;;;31.90;29.83
56270;BME280;42176;43.240;27.880;2023-08-07T09:46:53;99469.69;;;31.95;30.89
56270;BME280;42176;43.240;27.880;2023-08-07T09:48:57;99464.03;;;31.82;30.38
56270;BME280;42176;43.240;27.880;2023-08-07T09:51:01;99452.97;;;31.60;29.48
56270;BME280;42176;43.240;27.880;2023-08-07T09:53:05;99443.66;;;31.61;30.29
56270;BME280;42176;43.240;27.880;2023-08-07T09:55:05;99466.88;;;31.73;29.73
56270;BME280;42176;43.240;27.880;2023-08-07T09:57:06;99456.28;;;31.70;29.80
56270;BME280;42176;43.240;27.880;2023-08-07T09:59:08;99440.78;;;31.78;30.47
56270;BME280;42176;43.240;27.880;2023-08-07T10:01:09;99454.50;;;31.93;29.70
56270;BME280;42176;43.240;27.880;2023-08-07T10:03:10;99459.47;;;32.19;29.05
56270;BME280;42176;43.240;27.880;2023-08-07T10:05:10;99453.81;;;32.06;28.96
56270;BME280;42176;43.240;27.880;2023-08-07T10:07:12;99443.53;;;31.93;29.48
56270;BME280;42176;43.240;27.880;2023-08-07T10:09:15;99448.13;;;31.62;29.73
56270;BME280;42176;43.240;27.880;2023-08-07T10:11:16;99452.16;;;31.36;30.53
56270;BME280;42176;43.240;27.880;2023-08-07T10:13:17;99448.47;;;31.29;29.94
56270;BME280;42176;43.240;27.880;2023-08-07T10:15:19;99453.69;;;31.69;29.19
56270;BME280;42176;43.240;27.880;2023-08-07T10:17:21;99469.31;;;32.28;29.73
56270;BME280;42176;43.240;27.880;2023-08-07T10:19:23;99458.41;;;32.50;29.17
56270;BME280;42176;43.240;27.880;2023-08-07T10:21:24;99464.41;;;32.60;29.20
56270;BME280;42176;43.240;27.880;2023-08-07T10:23:24;99453.44;;;32.39;29.24
56270;BME280;42176;43.240;27.880;2023-08-07T10:25:27;99452.50;;;32.01;28.99
56270;BME280;42176;43.240;27.880;2023-08-07T10:27:35;99467.44;;;31.84;29.85
56270;BME280;42176;43.240;27.880;2023-08-07T10:29:37;99461.22;;;31.90;29.51
56270;BME280;42176;43.240;27.880;2023-08-07T10:31:40;99453.84;;;31.76;29.60